Garcia Miguel — CUGT9 — position and weather

sailwx.info

Track history (hours):
 
Tides and Currents Weather Stations Pressure Air Temp Water Temp Dewpoint Dewpoint Depression Visibility Wind Speed Wind Dir Waves Ship Positions

Garcia Miguel

Last reported at 2015-Jul-29 21:33 UTC. Time now 2015-Jul-29 22:06 UTC.
Position N 37°43' W 028°58'.

Length 20 m.

Type: Fishing. MMSI: 263500286.

Date/timePositionNaut miles runAvg speedWind from/ knotsBaromVisibWave heightAir tempDewpointWater temp
2015-Jul-29 21:33N 37°43' W 028°58'0 0.4
2015-Jul-29 20:33N 37°44' W 028°57'0 0.2
2015-Jul-29 19:33N 37°44' W 028°57'1 0.8
2015-Jul-29 18:33N 37°44' W 028°58'1 1.0
2015-Jul-29 17:34N 37°44' W 028°57'1 0.6
2015-Jul-29 16:33N 37°44' W 028°58'0 0.4
2015-Jul-29 15:33N 37°45' W 028°58'1 0.7
2015-Jul-29 14:33N 37°45' W 028°57'1 1.0
2015-Jul-29 13:33N 37°45' W 028°58'1 1.5
2015-Jul-29 12:33N 37°44' W 028°57'1 1.3
2015-Jul-29 11:33N 37°45' W 028°59'4 4.5
2015-Jul-29 10:33N 37°45' W 029°04'8 7.7
2015-Jul-29 09:33N 37°45' W 029°14'8 7.6
2015-Jul-29 08:32N 37°45' W 029°24'7 7.0
2015-Jul-29 07:32N 37°44' W 029°33'9 7.4
2015-Jul-29 06:22N 37°42' W 029°43'  
2015-Jul-23 21:33N 37°44' W 029°46'7 6.9
2015-Jul-23 20:33N 37°47' W 029°38'6 6.4
2015-Jul-23 19:33N 37°50' W 029°31'6 5.8
2015-Jul-23 18:33N 37°53' W 029°24'6 5.6
2015-Jul-23 17:33N 37°56' W 029°18'1 0.7
2015-Jul-23 16:33N 37°56' W 029°18'1 1.0
2015-Jul-23 15:33N 37°57' W 029°17'1 0.7
2015-Jul-23 14:34N 37°57' W 029°16'1 0.9
2015-Jul-23 13:33N 37°58' W 029°16'1 0.6
2015-Jul-23 12:33N 37°58' W 029°16'1 1.1
2015-Jul-23 11:34N 37°57' W 029°16'1 0.7
2015-Jul-23 10:33N 37°57' W 029°15'1 1.0
2015-Jul-23 09:33N 37°58' W 029°15'1 0.5
2015-Jul-23 08:33N 37°58' W 029°15'1 1.1
2015-Jul-23 07:33N 37°57' W 029°15'1 1.3
2015-Jul-23 06:33N 37°56' W 029°16'1 0.9
2015-Jul-23 05:33N 37°56' W 029°17'2 2.0
2015-Jul-23 04:33N 37°57' W 029°16'1 0.7
2015-Jul-23 03:34N 37°57' W 029°15'2 1.7
2015-Jul-23 02:33N 37°57' W 029°13'2 2.2
2015-Jul-23 01:33N 37°57' W 029°10'0 0.5
2015-Jul-23 00:33N 37°58' W 029°11'1 0.7
2015-Jul-22 23:33N 37°58' W 029°11'1 0.6
2015-Jul-22 22:33N 37°59' W 029°12'1 0.8
2015-Jul-22 21:33N 37°59' W 029°12'1 0.7
2015-Jul-22 20:33N 37°60' W 029°13'1 0.9
2015-Jul-22 19:33N 37°60' W 029°14'1 1.1
2015-Jul-22 18:34N 37°60' W 029°16'0 0.2
2015-Jul-22 17:33N 38°00' W 029°16'1 1.0
2015-Jul-22 16:33N 37°60' W 029°14'1 0.9
2015-Jul-22 15:33N 38°00' W 029°13'1 0.8
2015-Jul-22 14:33N 38°00' W 029°12'2 1.7
2015-Jul-22 13:33N 37°59' W 029°11'0 0.4
2015-Jul-22 12:33N 37°58' W 029°11'1 0.8
2015-Jul-22 11:33N 37°59' W 029°11'1 0.7
2015-Jul-22 10:33N 37°58' W 029°11'1 0.7
2015-Jul-22 09:33N 37°58' W 029°11'1 0.7
2015-Jul-22 08:34N 37°58' W 029°12'1 1.0
2015-Jul-22 07:33N 37°57' W 029°12'2 1.0
2015-Jul-22 05:33N 37°59' W 029°11'4 4.2
2015-Jul-22 04:33N 37°60' W 029°16'3 3.1
2015-Jul-22 03:33N 37°60' W 029°12'2 2.2
2015-Jul-22 02:33N 37°58' W 029°11'0 0.4
2015-Jul-22 01:34N 37°58' W 029°12'0 0.4
2015-Jul-22 00:33N 37°58' W 029°12'1 1.1
2015-Jul-21 23:34N 37°57' W 029°12'7 6.5
2015-Jul-21 22:33N 37°52' W 029°07'7 6.9
2015-Jul-21 21:33N 37°46' W 029°01'6 6.2
2015-Jul-21 20:33N 37°42' W 028°55'1 0.8
2015-Jul-21 19:33N 37°43' W 028°56'1 1.0
2015-Jul-21 18:33N 37°43' W 028°57'1 0.6
2015-Jul-21 17:33N 37°44' W 028°58'1 0.6
2015-Jul-21 16:33N 37°44' W 028°57'1 0.9
2015-Jul-21 15:33N 37°44' W 028°58'2 1.8
2015-Jul-21 14:33N 37°46' W 028°59'1 1.0
2015-Jul-21 13:33N 37°45' W 028°58'0 0.2
2015-Jul-21 12:33N 37°45' W 028°58'1 1.1
2015-Jul-21 11:33N 37°45' W 028°59'1 0.5
2015-Jul-21 10:33N 37°45' W 028°60'1 1.0
2015-Jul-21 09:33N 37°45' W 028°59'1 1.1
2015-Jul-21 08:34N 37°45' W 028°57'2 1.9
2015-Jul-21 07:33N 37°43' W 028°56'0 0.1
2015-Jul-21 06:33N 37°43' W 028°56'1 1.5
2015-Jul-21 05:33N 37°44' W 028°58'2 2.0
2015-Jul-21 04:33N 37°45' W 028°59'4 3.9
2015-Jul-21 03:33N 37°44' W 028°55'4 4.2
2015-Jul-21 02:33N 37°40' W 028°54'0 0.2
2015-Jul-21 01:33N 37°40' W 028°54'1 0.5
2015-Jul-21 00:33N 37°40' W 028°55'1 0.5
2015-Jul-20 23:33N 37°41' W 028°55'1 0.6
2015-Jul-20 22:33N 37°41' W 028°56'1 0.6
2015-Jul-20 21:34N 37°42' W 028°56'1 0.7
2015-Jul-20 20:33N 37°42' W 028°57'0 0.2
2015-Jul-20 19:33N 37°42' W 028°57'0 0.3
2015-Jul-20 18:33N 37°43' W 028°57'1 1.0
2015-Jul-20 17:33N 37°43' W 028°58'1 1.0
2015-Jul-20 16:33N 37°43' W 028°59'1 1.0
2015-Jul-20 15:33N 37°44' W 028°59'1 1.0
2015-Jul-20 14:33N 37°45' W 028°59'1 0.8
2015-Jul-20 13:34N 37°45' W 028°58'1 0.9
2015-Jul-20 12:33N 37°45' W 028°57'1 0.9
2015-Jul-20 11:33N 37°44' W 028°58'1 0.6
2015-Jul-20 10:33N 37°44' W 028°59'1 0.9
2015-Jul-20 09:33N 37°44' W 028°58'1 0.7
2015-Jul-20 08:33N 37°44' W 028°57'2 1.9
2015-Jul-20 07:34N 37°42' W 028°57'0 0.4
2015-Jul-20 06:33N 37°42' W 028°57'1 0.9
2015-Jul-20 05:33N 37°43' W 028°56'2 2.1
2015-Jul-20 04:33N 37°45' W 028°58'3 3.4
2015-Jul-20 03:33N 37°42' W 028°55'4 4.2
2015-Jul-20 02:33N 37°43' W 028°49'1 1.0
2015-Jul-20 01:33N 37°44' W 028°51'1 1.2
2015-Jul-20 00:33N 37°44' W 028°52'1 1.0
2015-Jul-19 23:33N 37°44' W 028°53'1 1.3
2015-Jul-19 22:33N 37°44' W 028°55'  
Track history (hours):
 
Tides and Currents Weather Stations Pressure Air Temp Water Temp Dewpoint Dewpoint Depression Visibility Wind Speed Wind Dir Waves Ship Positions

Garcia Miguel

Last reported at 2015-Jul-29 21:33 UTC. Time now 2015-Jul-29 22:06 UTC.
Position N 37°43' W 028°58'.

Length 20 m.

Type: Fishing. MMSI: 263500286.

Date/timePositionNaut miles runAvg speedWind from/ knotsBaromVisibWave heightAir tempDewpointWater temp
2015-Jul-29 21:33N 37°43' W 028°58'0 0.4
2015-Jul-29 20:33N 37°44' W 028°57'0 0.2
2015-Jul-29 19:33N 37°44' W 028°57'1 0.8
2015-Jul-29 18:33N 37°44' W 028°58'1 1.0
2015-Jul-29 17:34N 37°44' W 028°57'1 0.6
2015-Jul-29 16:33N 37°44' W 028°58'0 0.4
2015-Jul-29 15:33N 37°45' W 028°58'1 0.7
2015-Jul-29 14:33N 37°45' W 028°57'1 1.0
2015-Jul-29 13:33N 37°45' W 028°58'1 1.5
2015-Jul-29 12:33N 37°44' W 028°57'1 1.3
2015-Jul-29 11:33N 37°45' W 028°59'4 4.5
2015-Jul-29 10:33N 37°45' W 029°04'8 7.7
2015-Jul-29 09:33N 37°45' W 029°14'8 7.6
2015-Jul-29 08:32N 37°45' W 029°24'7 7.0
2015-Jul-29 07:32N 37°44' W 029°33'9 7.4
2015-Jul-29 06:22N 37°42' W 029°43'  
2015-Jul-23 21:33N 37°44' W 029°46'7 6.9
2015-Jul-23 20:33N 37°47' W 029°38'6 6.4
2015-Jul-23 19:33N 37°50' W 029°31'6 5.8
2015-Jul-23 18:33N 37°53' W 029°24'6 5.6
2015-Jul-23 17:33N 37°56' W 029°18'1 0.7
2015-Jul-23 16:33N 37°56' W 029°18'1 1.0
2015-Jul-23 15:33N 37°57' W 029°17'1 0.7
2015-Jul-23 14:34N 37°57' W 029°16'1 0.9
2015-Jul-23 13:33N 37°58' W 029°16'1 0.6
2015-Jul-23 12:33N 37°58' W 029°16'1 1.1
2015-Jul-23 11:34N 37°57' W 029°16'1 0.7
2015-Jul-23 10:33N 37°57' W 029°15'1 1.0
2015-Jul-23 09:33N 37°58' W 029°15'1 0.5
2015-Jul-23 08:33N 37°58' W 029°15'1 1.1
2015-Jul-23 07:33N 37°57' W 029°15'1 1.3
2015-Jul-23 06:33N 37°56' W 029°16'1 0.9
2015-Jul-23 05:33N 37°56' W 029°17'2 2.0
2015-Jul-23 04:33N 37°57' W 029°16'1 0.7
2015-Jul-23 03:34N 37°57' W 029°15'2 1.7
2015-Jul-23 02:33N 37°57' W 029°13'2 2.2
2015-Jul-23 01:33N 37°57' W 029°10'0 0.5
2015-Jul-23 00:33N 37°58' W 029°11'1 0.7
2015-Jul-22 23:33N 37°58' W 029°11'1 0.6
2015-Jul-22 22:33N 37°59' W 029°12'1 0.8
2015-Jul-22 21:33N 37°59' W 029°12'1 0.7
2015-Jul-22 20:33N 37°60' W 029°13'1 0.9
2015-Jul-22 19:33N 37°60' W 029°14'1 1.1
2015-Jul-22 18:34N 37°60' W 029°16'0 0.2
2015-Jul-22 17:33N 38°00' W 029°16'1 1.0
2015-Jul-22 16:33N 37°60' W 029°14'1 0.9
2015-Jul-22 15:33N 38°00' W 029°13'1 0.8
2015-Jul-22 14:33N 38°00' W 029°12'2 1.7
2015-Jul-22 13:33N 37°59' W 029°11'0 0.4
2015-Jul-22 12:33N 37°58' W 029°11'1 0.8
2015-Jul-22 11:33N 37°59' W 029°11'1 0.7
2015-Jul-22 10:33N 37°58' W 029°11'1 0.7
2015-Jul-22 09:33N 37°58' W 029°11'1 0.7
2015-Jul-22 08:34N 37°58' W 029°12'1 1.0
2015-Jul-22 07:33N 37°57' W 029°12'2 1.0
2015-Jul-22 05:33N 37°59' W 029°11'4 4.2
2015-Jul-22 04:33N 37°60' W 029°16'3 3.1
2015-Jul-22 03:33N 37°60' W 029°12'2 2.2
2015-Jul-22 02:33N 37°58' W 029°11'0 0.4
2015-Jul-22 01:34N 37°58' W 029°12'0 0.4
2015-Jul-22 00:33N 37°58' W 029°12'1 1.1
2015-Jul-21 23:34N 37°57' W 029°12'7 6.5
2015-Jul-21 22:33N 37°52' W 029°07'7 6.9
2015-Jul-21 21:33N 37°46' W 029°01'6 6.2
2015-Jul-21 20:33N 37°42' W 028°55'1 0.8
2015-Jul-21 19:33N 37°43' W 028°56'1 1.0
2015-Jul-21 18:33N 37°43' W 028°57'1 0.6
2015-Jul-21 17:33N 37°44' W 028°58'1 0.6
2015-Jul-21 16:33N 37°44' W 028°57'1 0.9
2015-Jul-21 15:33N 37°44' W 028°58'2 1.8
2015-Jul-21 14:33N 37°46' W 028°59'1 1.0
2015-Jul-21 13:33N 37°45' W 028°58'0 0.2
2015-Jul-21 12:33N 37°45' W 028°58'1 1.1
2015-Jul-21 11:33N 37°45' W 028°59'1 0.5
2015-Jul-21 10:33N 37°45' W 028°60'1 1.0
2015-Jul-21 09:33N 37°45' W 028°59'1 1.1
2015-Jul-21 08:34N 37°45' W 028°57'2 1.9
2015-Jul-21 07:33N 37°43' W 028°56'0 0.1
2015-Jul-21 06:33N 37°43' W 028°56'1 1.5
2015-Jul-21 05:33N 37°44' W 028°58'2 2.0
2015-Jul-21 04:33N 37°45' W 028°59'4 3.9
2015-Jul-21 03:33N 37°44' W 028°55'4 4.2
2015-Jul-21 02:33N 37°40' W 028°54'0 0.2
2015-Jul-21 01:33N 37°40' W 028°54'1 0.5
2015-Jul-21 00:33N 37°40' W 028°55'1 0.5
2015-Jul-20 23:33N 37°41' W 028°55'1 0.6
2015-Jul-20 22:33N 37°41' W 028°56'1 0.6
2015-Jul-20 21:34N 37°42' W 028°56'1 0.7
2015-Jul-20 20:33N 37°42' W 028°57'0 0.2
2015-Jul-20 19:33N 37°42' W 028°57'0 0.3
2015-Jul-20 18:33N 37°43' W 028°57'1 1.0
2015-Jul-20 17:33N 37°43' W 028°58'1 1.0
2015-Jul-20 16:33N 37°43' W 028°59'1 1.0
2015-Jul-20 15:33N 37°44' W 028°59'1 1.0
2015-Jul-20 14:33N 37°45' W 028°59'1 0.8
2015-Jul-20 13:34N 37°45' W 028°58'1 0.9
2015-Jul-20 12:33N 37°45' W 028°57'1 0.9
2015-Jul-20 11:33N 37°44' W 028°58'1 0.6
2015-Jul-20 10:33N 37°44' W 028°59'1 0.9
2015-Jul-20 09:33N 37°44' W 028°58'1 0.7
2015-Jul-20 08:33N 37°44' W 028°57'2 1.9
2015-Jul-20 07:34N 37°42' W 028°57'0 0.4
2015-Jul-20 06:33N 37°42' W 028°57'1 0.9
2015-Jul-20 05:33N 37°43' W 028°56'2 2.1
2015-Jul-20 04:33N 37°45' W 028°58'3 3.4
2015-Jul-20 03:33N 37°42' W 028°55'4 4.2
2015-Jul-20 02:33N 37°43' W 028°49'1 1.0
2015-Jul-20 01:33N 37°44' W 028°51'1 1.2
2015-Jul-20 00:33N 37°44' W 028°52'1 1.0
2015-Jul-19 23:33N 37°44' W 028°53'1 1.3
2015-Jul-19 22:33N 37°44' W 028°55'  

Dump ship's entire track history